Main page
METAR-TAF:

METAR-TAF

Airports :

Fort Worth Spinks Airport

Fort Worth, Texas, United States

latitude: 32-34N, longitude: 097-18W, elevation: 699 ft

Current weather observation

The report was made 29 minutes ago, at 18:55 UTC
Wind 8 mph from the East
Temperature 91°F
Humidity 49%
Pressure 30.19 in. Hg
Visibility: 10 miles
Scattered clouds at a height of 4100 ft
Broken clouds at a height of 8000 ft

METAR: KFWS 201855Z 10007KT 10SM SCT041 BKN080 33/21 A3019

Time: 14:24 (19:24 UTC)


TAF: missing

Weather observations and forecasts of more than 4000 airports (METAR and TAF reports).

The available stations are represented by yellow and red dots on the map.

Hover mouse over dot to see the name of the station.

Then click to see weather observations and forecasts.

To change the map : click on the green buttons with a black cross to zoom in, on the green button with a dash to zoom out, or on the green arrows for adjacent maps.


METAR-TAF: